地図

経路データ

SID SEASON NUMBER BASIN SUBBASIN NAME ISO_TIME NATURE LAT LON WMO_WIND WMO_PRES WMO_AGENCY TRACK_TYPE DIST2LAND LANDFALL IFLAG USA_AGENCY USA_ATCF_ID USA_LAT USA_LON USA_RECORD USA_STATUS USA_WIND USA_PRES USA_SSHS USA_R34_NE USA_R34_SE USA_R34_SW USA_R34_NW USA_R50_NE USA_R50_SE USA_R50_SW USA_R50_NW USA_R64_NE USA_R64_SE USA_R64_SW USA_R64_NW USA_POCI USA_ROCI USA_RMW USA_EYE TOKYO_LAT TOKYO_LON TOKYO_GRADE TOKYO_WIND TOKYO_PRES TOKYO_R50_DIR TOKYO_R50_LONG TOKYO_R50_SHORT TOKYO_R30_DIR TOKYO_R30_LONG TOKYO_R30_SHORT TOKYO_LAND CMA_LAT CMA_LON CMA_CAT CMA_WIND CMA_PRES HKO_LAT HKO_LON HKO_CAT HKO_WIND HKO_PRES NEWDELHI_LAT NEWDELHI_LON NEWDELHI_GRADE NEWDELHI_WIND NEWDELHI_PRES NEWDELHI_CI NEWDELHI_DP NEWDELHI_POCI REUNION_LAT REUNION_LON REUNION_TYPE REUNION_WIND REUNION_PRES REUNION_TNUM REUNION_CI REUNION_RMW REUNION_R34_NE REUNION_R34_SE REUNION_R34_SW REUNION_R34_NW REUNION_R50_NE REUNION_R50_SE REUNION_R50_SW REUNION_R50_NW REUNION_R64_NE REUNION_R64_SE REUNION_R64_SW REUNION_R64_NW BOM_LAT BOM_LON BOM_TYPE BOM_WIND BOM_PRES BOM_TNUM BOM_CI BOM_RMW BOM_R34_NE BOM_R34_SE BOM_R34_SW BOM_R34_NW BOM_R50_NE BOM_R50_SE BOM_R50_SW BOM_R50_NW BOM_R64_NE BOM_R64_SE BOM_R64_SW BOM_R64_NW BOM_ROCI BOM_POCI BOM_EYE BOM_POS_METHOD BOM_PRES_METHOD NADI_LAT NADI_LON NADI_CAT NADI_WIND NADI_PRES WELLINGTON_LAT WELLINGTON_LON WELLINGTON_WIND WELLINGTON_PRES DS824_LAT DS824_LON DS824_STAGE DS824_WIND DS824_PRES TD9636_LAT TD9636_LON TD9636_STAGE TD9636_WIND TD9636_PRES TD9635_LAT TD9635_LON TD9635_WIND TD9635_PRES TD9635_ROCI NEUMANN_LAT NEUMANN_LON NEUMANN_CLASS NEUMANN_WIND NEUMANN_PRES MLC_LAT MLC_LON MLC_CLASS MLC_WIND MLC_PRES USA_GUST BOM_GUST BOM_GUST_PER REUNION_GUST REUNION_GUST_PER USA_SEAHGT USA_SEARAD_NE USA_SEARAD_SE USA_SEARAD_SW USA_SEARAD_NW STORM_SPEED STORM_DIR
1911040S15057 1911 13 SI MM NOT_NAMED 1911-02-09 00:00:00 TS -14.6000 56.5000 main 624 602 _________O____ -1 -14.6000 56.5000 TC 3 195
1911040S15057 1911 13 SI MM NOT_NAMED 1911-02-09 03:00:00 TS -14.7625 56.4575 main 602 593 _________P____ -1 -14.7625 56.4575 TC 3 197
1911040S15057 1911 13 SI MM NOT_NAMED 1911-02-09 06:00:00 TS -14.9000 56.4000 main 593 582 _________O____ -1 -14.9000 56.4000 TC 3 210
1911040S15057 1911 13 SI MM NOT_NAMED 1911-02-09 09:00:00 TS -15.0000 56.3150 main 584 573 _________P____ -1 -15.0000 56.3150 TC 3 224
1911040S15057 1911 13 SI MM NOT_NAMED 1911-02-09 12:00:00 TS -15.1000 56.2000 main 576 567 _________O____ -1 -15.1000 56.2000 TC 4 227
1911040S15057 1911 13 SI MM NOT_NAMED 1911-02-09 15:00:00 TS -15.2425 56.0500 main 567 552 _________P____ -1 -15.2425 56.0500 TC 4 224
1911040S15057 1911 13 SI MM NOT_NAMED 1911-02-09 18:00:00 TS -15.4000 55.9000 main 552 541 _________O____ -1 -15.4000 55.9000 TC 4 220
1911040S15057 1911 13 SI MM NOT_NAMED 1911-02-09 21:00:00 TS -15.5500 55.7850 main 545 527 _________P____ -1 -15.5500 55.7850 TC 4 213
1911040S15057 1911 13 SI MM NOT_NAMED 1911-02-10 00:00:00 TS -15.7000 55.7000 main 527 517 _________O____ -1 -15.7000 55.7000 TC 3 204
1911040S15057 1911 13 SI MM NOT_NAMED 1911-02-10 03:00:00 TS -15.8500 55.6425 main 521 500 _________P____ -1 -15.8500 55.6425 TC 3 197
1911040S15057 1911 13 SI MM NOT_NAMED 1911-02-10 06:00:00 TS -16.0000 55.6000 main 500 490 _________O____ -1 -16.0000 55.6000 TC 3 194
1911040S15057 1911 13 SI MM NOT_NAMED 1911-02-10 09:00:00 TS -16.1575 55.5575 main 480 474 _________P____ -1 -16.1575 55.5575 TC 3 197
1911040S15057 1911 13 SI MM NOT_NAMED 1911-02-10 12:00:00 TS -16.3000 55.5000 main 474 464 _________O____ -1 -16.3000 55.5000 TC 3 212
1911040S15057 1911 13 SI MM NOT_NAMED 1911-02-10 15:00:00 TS -16.4075 55.4000 main 469 459 _________P____ -1 -16.4075 55.4000 TC 3 224
1911040S15057 1911 13 SI MM NOT_NAMED 1911-02-10 18:00:00 TS -16.5000 55.3000 main 464 455 _________O____ -1 -16.5000 55.3000 TC 2 221
1911040S15057 1911 13 SI MM NOT_NAMED 1911-02-10 21:00:00 TS -16.5850 55.2425 main 460 451 _________P____ -1 -16.5850 55.2425 TC 2 207
1911040S15057 1911 13 SI MM NOT_NAMED 1911-02-11 00:00:00 TS -16.7000 55.2000 main 451 432 _________O____ -1 -16.7000 55.2000 TC 3 197
1911040S15057 1911 13 SI MM NOT_NAMED 1911-02-11 03:00:00 TS -16.8775 55.1500 main 432 420 _________P____ -1 -16.8775 55.1500 TC 4 193
1911040S15057 1911 13 SI MM NOT_NAMED 1911-02-11 06:00:00 TS -17.1000 55.1000 main 420 402 _________O____ -1 -17.1000 55.1000 TC 5 193
1911040S15057 1911 13 SI MM NOT_NAMED 1911-02-11 09:00:00 TS -17.3425 55.0425 main 409 381 _________P____ -1 -17.3425 55.0425 TC 5 191
1911040S15057 1911 13 SI MM NOT_NAMED 1911-02-11 12:00:00 TS -17.6000 55.0000 main 381 359 _________O____ -1 -17.6000 55.0000 TC 5 183
1911040S15057 1911 13 SI MM NOT_NAMED 1911-02-11 15:00:00 TS -17.8575 54.9925 main 348 325 _________P____ -1 -17.8575 54.9925 TC 5 178
1911040S15057 1911 13 SI MM NOT_NAMED 1911-02-11 18:00:00 TS -18.1000 55.0000 main 325 303 _________O____ -1 -18.1000 55.0000 TC 5 0
1911040S15057 1911 13 SI MM NOT_NAMED 1911-02-11 21:00:00 TS -18.3075 55.0000 main 303 281 _________P____ -1 -18.3075 55.0000 TC 4 0
1911040S15057 1911 13 SI MM NOT_NAMED 1911-02-12 00:00:00 TS -18.5000 55.0000 main 281 259 _________O____ -1 -18.5000 55.0000 TC 4 0
1911040S15057 1911 13 SI MM NOT_NAMED 1911-02-12 03:00:00 TS -18.7000 55.0000 main 259 236 _________P____ -1 -18.7000 55.0000 TC 4 0
1911040S15057 1911 13 SI MM NOT_NAMED 1911-02-12 06:00:00 TS -18.9000 55.0000 main 236 214 _________O____ -1 -18.9000 55.0000 TC 4 0
1911040S15057 1911 13 SI MM NOT_NAMED 1911-02-12 09:00:00 TS -19.1075 55.0000 main 214 192 _________P____ -1 -19.1075 55.0000 TC 4 0
1911040S15057 1911 13 SI MM NOT_NAMED 1911-02-12 12:00:00 TS -19.3000 55.0000 main 192 181 _________O____ -1 -19.3000 55.0000 TC 4 0
1911040S15057 1911 13 SI MM NOT_NAMED 1911-02-12 15:00:00 TS -19.4575 54.9925 main 170 159 _________P____ -1 -19.4575 54.9925 TC 3 0
1911040S15057 1911 13 SI MM NOT_NAMED 1911-02-12 18:00:00 TS -19.6000 55.0000 main 159 148 _________O____ -1 -19.6000 55.0000 TC 3 170
1911040S15057 1911 13 SI MM NOT_NAMED 1911-02-12 21:00:00 TS -19.7275 55.0350 main 148 124 _________P____ -1 -19.7275 55.0350 TC 3 163
1911040S15057 1911 13 SI MM NOT_NAMED 1911-02-13 00:00:00 TS -19.9000 55.1000 main 124 90 _________O____ -1 -19.9000 55.1000 TC 5 162
1911040S15057 1911 13 SI MM NOT_NAMED 1911-02-13 03:00:00 TS -20.1775 55.1925 main 90 55 _________P____ -1 -20.1775 55.1925 TC 6 162
1911040S15057 1911 13 SI MM NOT_NAMED 1911-02-13 06:00:00 TS -20.5000 55.3000 main 55 22 _________O____ -1 -20.5000 55.3000 TC 7 163
1911040S15057 1911 13 SI MM NOT_NAMED 1911-02-13 09:00:00 TS -20.8075 55.4000 main 22 0 _________P____ -1 -20.8075 55.4000 TC 6 163
1911040S15057 1911 13 SI MM NOT_NAMED 1911-02-13 12:00:00 TS -21.1000 55.5000 main 0 0 _________O____ -1 -21.1000 55.5000 TC 6 162
1911040S15057 1911 13 SI MM NOT_NAMED 1911-02-13 15:00:00 TS -21.3650 55.5926 main 0 0 _________P____ -1 -21.3650 55.5926 TC 5 160
1911040S15057 1911 13 SI MM NOT_NAMED 1911-02-13 18:00:00 TS -21.6000 55.7000 main 24 24 _________O____ -1 -21.6000 55.7000 TC 5 152
1911040S15057 1911 13 SI MM NOT_NAMED 1911-02-13 21:00:00 TS -21.7850 55.8352 main 49 49 _________P____ -1 -21.7850 55.8352 TC 5 145
1911040S15057 1911 13 SI MM NOT_NAMED 1911-02-14 00:00:00 TS -22.0000 56.0000 main 78 78 _________O____ -1 -22.0000 56.0000 TC 6 149
1911040S15057 1911 13 SI MM NOT_NAMED 1911-02-14 03:00:00 TS -22.3350 56.1924 main 118 118 _________P____ -1 -22.3350 56.1924 TC 8 152
1911040S15057 1911 13 SI MM NOT_NAMED 1911-02-14 06:00:00 TS -22.7000 56.4000 main 167 167 _________O____ -1 -22.7000 56.4000 TC 8 152
1911040S15057 1911 13 SI MM NOT_NAMED 1911-02-14 09:00:00 TS -23.0149 56.5926 main 206 206 _________P____ -1 -23.0149 56.5926 TC 7 148
1911040S15057 1911 13 SI MM NOT_NAMED 1911-02-14 12:00:00 TS -23.3000 56.8000 main 245 245 _________O____ -1 -23.3000 56.8000 TC 7 143
1911040S15057 1911 13 SI MM NOT_NAMED 1911-02-14 15:00:00 TS -23.5575 57.0426 main 284 284 _________P____ -1 -23.5575 57.0426 TC 7 137
1911040S15057 1911 13 SI MM NOT_NAMED 1911-02-14 18:00:00 TS -23.8000 57.3000 main 319 319 _________O____ -1 -23.8000 57.3000 TC 7 136
1911040S15057 1911 13 SI MM NOT_NAMED 1911-02-14 21:00:00 TS -24.0476 57.5523 main 353 353 _________P____ -1 -24.0476 57.5523 TC 7 138
1911040S15057 1911 13 SI MM NOT_NAMED 1911-02-15 00:00:00 TS -24.3000 57.8000 main 392 _________O____ -1 -24.3000 57.8000 TC 7 138

IBTrACS Databaseについて

本データベースは、米国NOAAが公開する1842年以降の世界の熱帯低気圧のベストトラックデータアーカイブInternational Best Track Archive for Climate Stewardship (IBTrACS)を、ウェブで閲覧しやすい形式に変換したものです。

最終更新日:2021-12-08